createdAt,value
2022-11-16T00:01:20.027Z,69.26
2022-11-16T00:03:46.681Z,68.37
2022-11-16T00:06:14.690Z,67.67
2022-11-16T00:08:44.010Z,66.79
2022-11-16T00:11:14.552Z,67.54
2022-11-16T00:13:42.965Z,66.61
2022-11-16T00:16:17.952Z,66.89
2022-11-16T00:18:44.922Z,66.24
2022-11-16T00:21:11.594Z,66.19
2022-11-16T00:23:38.975Z,66.29
2022-11-16T00:26:10.042Z,65.41
2022-11-16T00:28:36.904Z,65.93
2022-11-16T00:31:05.807Z,65.56
2022-11-16T00:33:33.326Z,65.50
2022-11-16T00:36:05.202Z,65.86
2022-11-16T00:38:32.262Z,65.75
2022-11-16T00:40:58.995Z,65.61
2022-11-16T00:43:25.952Z,65.35
2022-11-16T00:45:52.866Z,66.19
2022-11-16T00:48:19.800Z,66.31
2022-11-16T00:50:47.088Z,66.52
2022-11-16T00:53:16.608Z,66.68
2022-11-16T00:55:44.400Z,66.38
2022-11-16T00:58:11.750Z,66.86
2022-11-16T01:00:41.500Z,67.64
2022-11-16T01:03:08.295Z,68.38
2022-11-16T01:05:35.000Z,68.39
2022-11-16T01:08:01.796Z,67.74
2022-11-16T01:10:30.174Z,67.57
2022-11-16T01:12:56.745Z,66.72
2022-11-16T01:15:26.710Z,66.56
2022-11-16T01:17:54.957Z,65.70
2022-11-16T01:20:27.324Z,65.68
2022-11-16T01:22:54.333Z,65.47
2022-11-16T01:25:21.264Z,66.71
2022-11-16T01:27:48.026Z,67.08
2022-11-16T01:30:29.334Z,67.28
2022-11-16T01:33:01.289Z,66.94
2022-11-16T01:35:27.912Z,66.69
2022-11-16T01:37:54.491Z,66.19
2022-11-16T01:40:21.086Z,66.76
2022-11-16T01:42:48.164Z,65.88
2022-11-16T01:45:37.957Z,66.28
2022-11-16T01:48:09.617Z,65.74
2022-11-16T01:50:37.040Z,65.88
2022-11-16T01:53:07.352Z,65.81
2022-11-16T01:55:54.306Z,65.50
2022-11-16T01:58:32.852Z,66.29
2022-11-16T02:01:20.161Z,65.86
2022-11-16T02:03:52.156Z,66.79
2022-11-16T02:06:28.155Z,66.97
2022-11-16T02:09:34.173Z,67.28
2022-11-16T02:12:16.822Z,67.30
2022-11-16T02:15:08.386Z,67.04
2022-11-16T02:18:00.276Z,66.46
2022-11-16T02:20:45.362Z,66.42
2022-11-16T02:23:39.332Z,66.43
2022-11-16T02:26:14.894Z,66.43
2022-11-16T02:29:00.150Z,66.90
2022-11-16T02:31:37.586Z,66.90
2022-11-16T02:34:09.942Z,66.91
2022-11-16T02:36:41.564Z,68.07
2022-11-16T02:39:14.685Z,68.47
2022-11-16T02:41:44.147Z,69.21
2022-11-16T02:44:22.687Z,70.09
2022-11-16T02:46:55.666Z,70.56
2022-11-16T02:49:25.642Z,70.13
2022-11-16T02:51:54.360Z,71.06
2022-11-16T02:54:22.574Z,71.05
2022-11-16T02:57:04.225Z,71.10
2022-11-16T02:59:41.615Z,70.57
2022-11-16T03:02:24.178Z,70.56
2022-11-16T03:04:57.521Z,70.44
2022-11-16T03:07:30.607Z,69.75
2022-11-16T03:09:59.368Z,69.73
2022-11-16T03:12:31.136Z,69.53
2022-11-16T03:15:06.015Z,69.48
2022-11-16T03:17:32.581Z,69.05
2022-11-16T03:20:04.825Z,68.38
2022-11-16T03:22:41.628Z,68.06
2022-11-16T03:25:11.663Z,68.00
2022-11-16T03:27:45.003Z,68.98
2022-11-16T03:30:17.365Z,69.96
2022-11-16T03:33:06.209Z,71.03
2022-11-16T03:35:49.310Z,71.45
2022-11-16T03:38:19.621Z,71.97
2022-11-16T03:40:47.699Z,72.08
2022-11-16T03:43:17.425Z,72.56
2022-11-16T03:45:45.623Z,72.44
2022-11-16T03:48:12.873Z,72.08
2022-11-16T03:50:41.165Z,72.21
2022-11-16T03:53:09.350Z,72.19
2022-11-16T03:55:37.713Z,72.00
2022-11-16T03:58:04.813Z,72.68
2022-11-16T04:00:32.786Z,74.04
2022-11-16T04:03:06.639Z,73.74
2022-11-16T04:05:51.838Z,74.68
2022-11-16T04:08:37.305Z,74.17
2022-11-16T04:11:23.814Z,73.80
2022-11-16T04:14:10.818Z,74.13
2022-11-16T04:17:00.216Z,74.03
2022-11-16T04:19:45.503Z,73.64
2022-11-16T04:22:46.801Z,73.68
2022-11-16T04:25:22.237Z,73.53
2022-11-16T04:28:07.937Z,73.53
2022-11-16T04:30:54.584Z,73.47
2022-11-16T04:33:39.660Z,73.18
2022-11-16T04:36:25.477Z,73.31
2022-11-16T04:38:52.073Z,73.35
2022-11-16T04:41:37.341Z,73.68
2022-11-16T04:44:04.006Z,72.93
2022-11-16T04:46:49.420Z,73.04
2022-11-16T04:49:16.028Z,73.32
2022-11-16T04:51:43.601Z,74.07
2022-11-16T04:54:10.238Z,74.54
2022-11-16T04:56:37.817Z,75.10
2022-11-16T04:59:04.623Z,74.58
2022-11-16T05:01:50.078Z,74.03
2022-11-16T05:04:17.164Z,74.56
2022-11-16T05:06:43.986Z,73.68
2022-11-16T05:09:10.731Z,73.95
2022-11-16T05:11:37.336Z,73.71
2022-11-16T05:14:05.232Z,73.99
2022-11-16T05:16:33.572Z,73.94
2022-11-16T05:19:18.963Z,74.48
2022-11-16T05:21:45.676Z,74.52
2022-11-16T05:24:30.908Z,74.07
2022-11-16T05:27:01.108Z,73.89
2022-11-16T05:29:27.988Z,73.67
2022-11-16T05:31:54.662Z,73.68
2022-11-16T05:34:25.569Z,73.27
2022-11-16T05:36:52.553Z,73.75
2022-11-16T05:39:19.602Z,73.02
2022-11-16T05:41:49.275Z,73.14
2022-11-16T05:44:16.577Z,73.34
2022-11-16T05:46:45.094Z,73.22
2022-11-16T05:49:13.839Z,73.66
2022-11-16T05:51:43.153Z,73.33
2022-11-16T05:54:12.801Z,73.30
2022-11-16T05:56:39.872Z,72.86
2022-11-16T05:59:07.862Z,73.33
2022-11-16T06:01:35.894Z,72.96
2022-11-16T06:04:03.333Z,72.71
2022-11-16T06:06:32.516Z,72.67
2022-11-16T06:09:00.019Z,72.18
2022-11-16T06:11:31.365Z,72.12
2022-11-16T06:14:01.034Z,72.21
2022-11-16T06:16:27.624Z,72.12
2022-11-16T06:18:54.367Z,72.26
2022-11-16T06:21:21.044Z,71.78
2022-11-16T06:23:48.520Z,71.51
2022-11-16T06:26:15.219Z,71.75
2022-11-16T06:28:44.882Z,71.67
2022-11-16T06:31:12.124Z,72.01
2022-11-16T06:33:41.666Z,71.71
2022-11-16T06:36:19.389Z,71.60
2022-11-16T06:38:46.476Z,71.55
2022-11-16T06:41:13.535Z,71.74
2022-11-16T06:43:44.534Z,72.04
2022-11-16T06:46:11.429Z,71.65
2022-11-16T06:48:39.587Z,71.07
2022-11-16T06:51:10.677Z,71.31
2022-11-16T06:53:37.342Z,71.16
2022-11-16T06:56:06.378Z,71.46
2022-11-16T06:58:39.938Z,71.33
2022-11-16T07:01:11.488Z,71.17
2022-11-16T07:03:40.474Z,71.74
2022-11-16T07:06:10.542Z,71.95
2022-11-16T07:08:39.904Z,72.34
2022-11-16T07:11:09.862Z,72.25
2022-11-16T07:13:37.970Z,72.25
2022-11-16T07:16:07.688Z,72.43
2022-11-16T07:18:37.024Z,72.05
2022-11-16T07:21:12.845Z,72.09
2022-11-16T07:23:39.963Z,72.27
2022-11-16T07:26:10.417Z,72.20
2022-11-16T07:28:47.938Z,72.33
2022-11-16T07:31:18.203Z,72.37
2022-11-16T07:33:46.019Z,72.60
2022-11-16T07:36:40.112Z,72.19
2022-11-16T07:39:10.172Z,72.67
2022-11-16T07:41:42.519Z,72.66
2022-11-16T07:44:16.809Z,72.49
2022-11-16T07:46:46.996Z,72.51
2022-11-16T07:49:17.186Z,72.31
2022-11-16T07:52:00.167Z,72.26
2022-11-16T07:54:49.897Z,72.49
2022-11-16T07:57:16.694Z,72.50
2022-11-16T07:59:43.929Z,72.25
2022-11-16T08:02:11.579Z,72.78
2022-11-16T08:04:40.388Z,72.75
2022-11-16T08:07:08.531Z,72.26
2022-11-16T08:09:41.227Z,72.41
2022-11-16T08:12:11.820Z,72.49
2022-11-16T08:14:39.815Z,72.19
2022-11-16T08:17:08.332Z,72.31
2022-11-16T08:19:36.640Z,71.64
2022-11-16T08:22:03.820Z,71.82
2022-11-16T08:24:32.777Z,71.32
2022-11-16T08:26:59.491Z,71.85
2022-11-16T08:29:27.039Z,71.10
2022-11-16T08:31:56.090Z,71.42
2022-11-16T08:34:23.221Z,71.21
2022-11-16T08:36:56.177Z,70.59
2022-11-16T08:39:29.144Z,70.49
2022-11-16T08:41:55.806Z,70.61
2022-11-16T08:44:22.910Z,71.42
2022-11-16T08:46:52.599Z,72.30
2022-11-16T08:49:48.180Z,72.21
2022-11-16T08:52:16.629Z,71.07
2022-11-16T08:54:43.872Z,71.32
2022-11-16T08:57:11.120Z,71.48
2022-11-16T08:59:39.578Z,71.73
2022-11-16T09:02:10.643Z,71.17
2022-11-16T09:04:37.522Z,71.53
2022-11-16T09:07:04.520Z,71.66
2022-11-16T09:09:31.226Z,71.21
2022-11-16T09:11:57.785Z,71.51
2022-11-16T09:14:28.981Z,71.26
2022-11-16T09:16:55.585Z,71.09
2022-11-16T09:19:22.404Z,70.92
2022-11-16T09:21:48.995Z,70.67
2022-11-16T09:24:15.799Z,70.15
2022-11-16T09:26:42.395Z,70.77
2022-11-16T09:29:14.119Z,70.94
2022-11-16T09:31:41.782Z,70.83
2022-11-16T09:34:11.999Z,70.39
2022-11-16T09:36:38.640Z,70.60
2022-11-16T09:42:13.918Z,70.07
2022-11-16T09:45:08.952Z,69.15
2022-11-16T09:47:42.964Z,69.73
2022-11-16T09:50:30.035Z,69.46
2022-11-16T09:53:06.126Z,70.03
2022-11-16T09:55:38.014Z,68.86
2022-11-16T09:58:14.679Z,68.91
2022-11-16T10:00:53.132Z,68.27
2022-11-16T10:03:19.789Z,68.49
2022-11-16T10:06:05.007Z,68.41
2022-11-16T10:08:48.925Z,67.46
2022-11-16T10:11:36.114Z,67.26
2022-11-16T10:14:26.102Z,67.70
2022-11-16T10:16:55.684Z,68.20
2022-11-16T10:19:43.276Z,67.52
2022-11-16T10:22:32.236Z,66.12
2022-11-16T10:25:42.070Z,66.43
2022-11-16T10:28:40.157Z,66.60
2022-11-16T10:31:22.150Z,66.57
2022-11-16T10:33:54.104Z,65.90
2022-11-16T10:36:22.350Z,65.56
2022-11-16T10:38:48.970Z,65.64
2022-11-16T10:41:20.195Z,65.58
2022-11-16T10:43:48.231Z,65.44
2022-11-16T10:46:24.251Z,64.34
2022-11-16T10:49:29.219Z,64.61
2022-11-16T10:51:56.073Z,64.51
2022-11-16T10:54:22.776Z,64.91
2022-11-16T10:56:58.036Z,61.90
2022-11-16T10:59:41.768Z,63.75
2022-11-16T11:02:26.831Z,63.65
2022-11-16T11:05:08.198Z,63.31
2022-11-16T11:07:39.859Z,63.59
2022-11-16T11:10:28.077Z,62.26
2022-11-16T11:13:26.731Z,62.19
2022-11-16T11:16:16.409Z,61.54
2022-11-16T11:18:43.222Z,62.03
2022-11-16T11:21:21.244Z,60.77
2022-11-16T11:23:51.299Z,61.58
2022-11-16T11:26:40.093Z,61.30
2022-11-16T11:29:20.808Z,61.61
2022-11-16T11:31:52.204Z,60.96
2022-11-16T11:34:23.876Z,60.61
2022-11-16T11:37:00.314Z,60.79
2022-11-16T11:39:34.801Z,60.38
2022-11-16T11:42:13.823Z,61.04
2022-11-16T11:44:49.777Z,61.10
2022-11-16T11:47:59.989Z,60.22
2022-11-16T11:50:34.102Z,60.16
2022-11-16T11:53:22.366Z,60.45
2022-11-16T11:55:54.908Z,59.38
2022-11-16T11:58:31.700Z,59.72
2022-11-16T12:01:25.558Z,59.63
2022-11-16T12:04:19.976Z,58.56
2022-11-16T12:06:55.768Z,59.45
2022-11-16T12:09:31.774Z,59.04
2022-11-16T12:12:18.831Z,59.01
2022-11-16T12:14:49.369Z,59.94
2022-11-16T12:17:35.728Z,59.72
2022-11-16T12:20:11.554Z,59.49
2022-11-16T12:22:48.738Z,60.07
2022-11-16T12:25:25.140Z,59.56
2022-11-16T12:28:25.055Z,59.10
2022-11-16T12:31:14.137Z,59.43
2022-11-16T12:34:01.977Z,59.28
2022-11-16T12:37:08.109Z,59.33
2022-11-16T12:39:45.512Z,59.49
2022-11-16T12:42:22.334Z,59.06
2022-11-16T12:45:06.198Z,59.16
2022-11-16T12:48:03.612Z,58.04
2022-11-16T12:51:05.054Z,59.17
2022-11-16T12:53:56.194Z,58.36
2022-11-16T12:56:38.501Z,58.24
2022-11-16T12:59:26.481Z,57.45
2022-11-16T13:02:00.579Z,57.81
2022-11-16T13:04:37.254Z,56.97
2022-11-16T13:07:20.136Z,56.79
2022-11-16T13:09:51.209Z,57.45
2022-11-16T13:12:23.303Z,57.30
2022-11-16T13:14:52.821Z,56.91
2022-11-16T13:17:22.903Z,56.40
2022-11-16T13:20:25.817Z,56.55
2022-11-16T13:23:18.529Z,56.20
2022-11-16T13:26:19.008Z,56.40
2022-11-16T13:29:01.301Z,56.94
2022-11-16T13:31:38.405Z,56.07
2022-11-16T13:34:18.458Z,55.97
2022-11-16T13:36:47.663Z,55.96
2022-11-16T13:39:22.681Z,56.44
2022-11-16T13:42:07.445Z,56.48
2022-11-16T13:44:34.727Z,56.42
2022-11-16T13:47:04.876Z,55.99
2022-11-16T13:49:41.796Z,55.17
2022-11-16T13:52:23.300Z,55.54
2022-11-16T13:54:54.164Z,55.61
2022-11-16T13:57:25.250Z,55.54
2022-11-16T14:00:20.465Z,55.56
2022-11-16T14:02:47.392Z,54.86
2022-11-16T14:05:35.514Z,54.46
2022-11-16T14:08:20.632Z,55.51
2022-11-16T14:10:50.244Z,55.40
2022-11-16T14:13:36.157Z,55.93
2022-11-16T14:16:14.939Z,55.42
2022-11-16T14:18:43.652Z,55.21
2022-11-16T14:21:19.368Z,55.40
2022-11-16T14:23:48.447Z,54.56
2022-11-16T14:26:52.439Z,55.09
2022-11-16T14:29:40.379Z,55.49
2022-11-16T14:32:20.882Z,56.30
2022-11-16T14:34:50.348Z,56.27
2022-11-16T14:37:40.307Z,55.38
2022-11-16T14:40:08.478Z,55.76
2022-11-16T14:43:14.981Z,56.13
2022-11-16T14:45:38.501Z,56.22
2022-11-16T14:48:22.692Z,55.88
2022-11-16T14:51:03.591Z,55.90
2022-11-16T14:53:31.916Z,55.43
2022-11-16T14:56:10.717Z,55.97
2022-11-16T14:58:38.010Z,55.59
2022-11-16T15:01:13.852Z,55.82
2022-11-16T15:03:48.491Z,55.45
2022-11-16T15:06:16.377Z,55.60
2022-11-16T15:08:48.537Z,55.82
2022-11-16T15:11:51.451Z,55.40
2022-11-16T15:14:22.178Z,55.73
2022-11-16T15:16:53.877Z,55.24
2022-11-16T15:19:21.420Z,55.64
2022-11-16T15:21:59.593Z,55.94
2022-11-16T15:24:34.644Z,55.66
2022-11-16T15:27:30.376Z,55.80
2022-11-16T15:29:57.003Z,55.72
2022-11-16T15:32:23.672Z,55.59
2022-11-16T15:34:53.474Z,56.95
2022-11-16T15:37:27.985Z,57.21
2022-11-16T15:39:56.356Z,57.80
2022-11-16T15:42:25.622Z,57.33
2022-11-16T15:44:52.999Z,56.66
2022-11-16T15:47:21.584Z,57.49
2022-11-16T15:49:52.850Z,57.30
2022-11-16T15:52:43.656Z,56.63
2022-11-16T15:55:28.919Z,55.82
2022-11-16T15:58:25.669Z,55.78
2022-11-16T16:00:53.530Z,55.55
2022-11-16T16:03:26.257Z,55.59
2022-11-16T16:05:53.724Z,55.50
2022-11-16T16:08:26.303Z,55.64
2022-11-16T16:11:12.427Z,55.30
2022-11-16T16:13:41.892Z,55.79
2022-11-16T16:16:37.393Z,57.52
2022-11-16T16:19:44.231Z,58.37
2022-11-16T16:22:23.561Z,57.78
2022-11-16T16:24:50.154Z,57.55
2022-11-16T16:27:23.416Z,58.71
2022-11-16T16:29:52.223Z,58.66
2022-11-16T16:32:26.022Z,58.39
2022-11-16T16:34:54.218Z,58.65
2022-11-16T16:37:21.068Z,58.08
2022-11-16T16:39:47.926Z,57.95
2022-11-16T16:42:16.598Z,57.20
2022-11-16T16:44:44.789Z,58.60
2022-11-16T16:47:11.918Z,58.05
2022-11-16T16:49:38.624Z,58.06
2022-11-16T16:52:06.554Z,58.38
2022-11-16T16:54:33.720Z,57.33
2022-11-16T16:57:02.322Z,58.05
2022-11-16T16:59:32.294Z,58.03
2022-11-16T17:01:59.781Z,57.21
2022-11-16T17:04:26.610Z,57.97
2022-11-16T17:06:53.957Z,58.12
2022-11-16T17:09:20.787Z,57.83
2022-11-16T17:11:47.726Z,57.93
2022-11-16T17:14:14.451Z,57.91
2022-11-16T17:16:41.121Z,58.29
2022-11-16T17:19:07.781Z,57.99
2022-11-16T17:21:34.393Z,58.08
2022-11-16T17:24:01.008Z,58.35
2022-11-16T17:26:29.538Z,58.33
2022-11-16T17:28:57.404Z,58.11
2022-11-16T17:31:25.346Z,58.05
2022-11-16T17:33:52.353Z,57.61
2022-11-16T17:36:19.336Z,58.10
2022-11-16T17:38:46.633Z,58.43
2022-11-16T17:41:19.064Z,58.03
2022-11-16T17:43:46.670Z,58.12
2022-11-16T17:46:18.728Z,57.62
2022-11-16T17:48:47.073Z,58.46
2022-11-16T17:51:16.552Z,57.49
2022-11-16T17:53:46.483Z,58.33
2022-11-16T17:56:16.073Z,58.35
2022-11-16T17:58:42.853Z,58.78
2022-11-16T18:01:09.531Z,58.78
2022-11-16T18:03:36.739Z,58.86
2022-11-16T18:06:13.414Z,58.58
2022-11-16T18:08:41.037Z,58.80
2022-11-16T18:11:10.210Z,57.83
2022-11-16T18:13:37.594Z,58.95
2022-11-16T18:16:09.889Z,58.79
2022-11-16T18:18:37.811Z,60.40
2022-11-16T18:21:05.480Z,59.55
2022-11-16T18:23:33.840Z,59.57
2022-11-16T18:26:03.071Z,58.77
2022-11-16T18:28:30.245Z,59.15
2022-11-16T18:31:09.612Z,59.16
2022-11-16T18:33:37.636Z,59.39
2022-11-16T18:36:05.909Z,59.65
2022-11-16T18:38:32.981Z,60.13
2022-11-16T18:41:12.794Z,61.06
2022-11-16T18:43:49.699Z,60.96
2022-11-16T18:46:31.226Z,61.09
2022-11-16T18:48:58.867Z,61.38
2022-11-16T18:51:27.276Z,61.05
2022-11-16T18:53:54.522Z,60.32
2022-11-16T18:56:21.458Z,61.51
2022-11-16T18:58:51.247Z,61.69
2022-11-16T19:01:21.803Z,61.60
2022-11-16T19:03:48.773Z,61.26
2022-11-16T19:06:17.120Z,61.78
2022-11-16T19:08:46.895Z,61.28
2022-11-16T19:11:17.116Z,62.19
2022-11-16T19:13:44.618Z,62.00
2022-11-16T19:16:13.457Z,61.85
2022-11-16T19:18:40.481Z,62.35
2022-11-16T19:21:09.877Z,62.54
2022-11-16T19:23:41.083Z,62.71
2022-11-16T19:26:07.778Z,63.00
2022-11-16T19:28:38.919Z,62.05
2022-11-16T19:31:08.515Z,61.45
2022-11-16T19:33:35.779Z,61.29
2022-11-16T19:36:20.843Z,61.10
2022-11-16T19:38:48.176Z,60.94
2022-11-16T19:41:16.914Z,60.63
2022-11-16T19:43:43.773Z,60.68
2022-11-16T19:46:12.659Z,60.87
2022-11-16T19:48:39.824Z,60.38
2022-11-16T19:51:11.850Z,60.46
2022-11-16T19:53:39.461Z,60.26
2022-11-16T19:56:07.249Z,59.69
2022-11-16T19:58:38.360Z,60.69
2022-11-16T20:01:07.152Z,60.16
2022-11-16T20:03:34.483Z,60.30
2022-11-16T20:06:12.694Z,60.47
2022-11-16T20:08:40.934Z,60.64
2022-11-16T20:11:15.606Z,60.29
2022-11-16T20:13:42.628Z,60.40
2022-11-16T20:16:11.374Z,61.16
2022-11-16T20:18:39.361Z,60.43
2022-11-16T20:21:07.634Z,59.80
2022-11-16T20:23:35.012Z,59.27
2022-11-16T20:26:09.739Z,60.23
2022-11-16T20:28:38.318Z,60.38
2022-11-16T20:31:13.015Z,60.83
2022-11-16T20:33:39.981Z,60.74
2022-11-16T20:36:09.256Z,60.47
2022-11-16T20:38:37.442Z,61.41
2022-11-16T20:41:18.372Z,61.54
2022-11-16T20:43:46.397Z,61.09
2022-11-16T20:46:15.187Z,61.16
2022-11-16T20:48:42.804Z,61.42
2022-11-16T20:51:11.721Z,60.64
2022-11-16T20:53:38.717Z,60.39
2022-11-16T20:56:05.959Z,61.27
2022-11-16T20:58:33.245Z,60.59
2022-11-16T21:01:14.397Z,60.53
2022-11-16T21:03:42.456Z,60.55
2022-11-16T21:06:09.075Z,60.95
2022-11-16T21:08:36.758Z,60.21
2022-11-16T21:11:12.869Z,61.20
2022-11-16T21:13:58.144Z,61.89
2022-11-16T21:16:24.870Z,61.82
2022-11-16T21:18:51.538Z,62.10
2022-11-16T21:21:18.194Z,62.37
2022-11-16T21:23:51.240Z,62.94
2022-11-16T21:26:24.108Z,62.08
2022-11-16T21:28:51.509Z,62.46
2022-11-16T21:31:20.794Z,63.68
2022-11-16T21:33:48.023Z,63.58
2022-11-16T21:36:16.879Z,62.38
2022-11-16T21:38:44.358Z,61.97
2022-11-16T21:41:13.274Z,63.30
2022-11-16T21:43:42.738Z,62.47
2022-11-16T21:46:24.771Z,61.91
2022-11-16T21:48:52.819Z,61.71
2022-11-16T21:51:21.484Z,61.79
2022-11-16T21:53:48.634Z,61.67
2022-11-16T21:56:17.614Z,62.08
2022-11-16T21:58:45.108Z,62.76
2022-11-16T22:01:13.267Z,62.53
2022-11-16T22:03:40.001Z,61.95
2022-11-16T22:06:26.708Z,61.77
2022-11-16T22:08:53.402Z,62.09
2022-11-16T22:11:22.213Z,62.37
2022-11-16T22:13:50.192Z,62.38
2022-11-16T22:16:18.853Z,61.59
2022-11-16T22:18:45.492Z,62.11
2022-11-16T22:21:12.294Z,61.61
2022-11-16T22:23:39.570Z,61.36
2022-11-16T22:26:07.630Z,61.58
2022-11-16T22:28:35.436Z,62.46
2022-11-16T22:31:06.693Z,62.39
2022-11-16T22:33:34.573Z,62.62
2022-11-16T22:36:01.875Z,62.11
2022-11-16T22:38:28.652Z,62.95
2022-11-16T22:40:56.918Z,63.17
2022-11-16T22:43:26.554Z,62.20
2022-11-16T22:46:00.223Z,62.32
2022-11-16T22:48:35.480Z,62.00
2022-11-16T22:51:28.959Z,62.29
2022-11-16T22:54:03.793Z,63.22
2022-11-16T22:56:32.329Z,63.73
2022-11-16T22:59:00.709Z,63.73
2022-11-16T23:01:27.366Z,63.59
2022-11-16T23:03:54.095Z,63.76
2022-11-16T23:06:20.863Z,64.40
2022-11-16T23:08:47.773Z,64.32
2022-11-16T23:11:35.546Z,64.05
2022-11-16T23:14:21.197Z,63.78
2022-11-16T23:16:47.992Z,63.60
2022-11-16T23:19:36.039Z,63.03
2022-11-16T23:22:22.326Z,61.93
2022-11-16T23:25:07.450Z,61.42
2022-11-16T23:27:42.587Z,62.79
2022-11-16T23:30:12.698Z,63.12
2022-11-16T23:32:40.494Z,62.53
2022-11-16T23:35:07.717Z,62.28
2022-11-16T23:37:34.646Z,62.35
2022-11-16T23:40:01.222Z,61.93
2022-11-16T23:43:00.068Z,62.02
2022-11-16T23:45:26.655Z,63.44
2022-11-16T23:47:53.270Z,63.59
2022-11-16T23:50:19.832Z,63.74
2022-11-16T23:52:46.804Z,62.67
2022-11-16T23:55:13.408Z,63.57
2022-11-16T23:57:40.044Z,63.89
